Brevoort Island, Canada
Current Conditions -  °F | °C
As of 6:00 AM on Saturday 01 Nov 2014 (Local Time) from CYFB Reporting Station
Light Snow Light Snow  
Wind Chill: 26°   Ceiling: 4000
Heat Index: 36°   Visibility: 15mi
Dew Point: 27°   Wind: 15mph
Humidity: 70%   Direction: 140°SE
Pressure: 29.95"   Gusts: NA
Location:  63.5°N, 64.33°W
Report Text: CYFB 010900Z 14013KT 15SM -SN BKN040 BKN050 02/M03 A2995 RMK SC5SC2 SLP144
Loading
Personal Weather Stations






























Interactive Weather Map
Tropical Storm Tracking
New forecast layout! Learn more

10-Day Weather Forecast

Advertisements
Track Severe Weather on mobile